sensor_id;sensor_type;location;lat;lon;timestamp;P1;durP1;ratioP1;P2;durP2;ratioP2
5945;SDS011;2998;48.206;16.394;2023-04-04T00:00:15;3.93;;;3.30;;
5945;SDS011;2998;48.206;16.394;2023-04-04T00:07:05;3.23;;;2.63;;
5945;SDS011;2998;48.206;16.394;2023-04-04T00:13:47;6.60;;;3.07;;
5945;SDS011;2998;48.206;16.394;2023-04-04T00:16:16;13.20;;;4.33;;
5945;SDS011;2998;48.206;16.394;2023-04-04T00:23:07;4.43;;;2.80;;
5945;SDS011;2998;48.206;16.394;2023-04-04T00:25:37;10.13;;;4.07;;
5945;SDS011;2998;48.206;16.394;2023-04-04T00:28:06;5.63;;;3.20;;
5945;SDS011;2998;48.206;16.394;2023-04-04T00:30:35;2.80;;;2.70;;
5945;SDS011;2998;48.206;16.394;2023-04-04T00:33:05;2.80;;;2.43;;
5945;SDS011;2998;48.206;16.394;2023-04-04T00:35:35;3.83;;;2.50;;
5945;SDS011;2998;48.206;16.394;2023-04-04T00:38:04;2.87;;;1.93;;
5945;SDS011;2998;48.206;16.394;2023-04-04T00:44:46;3.90;;;2.67;;
5945;SDS011;2998;48.206;16.394;2023-04-04T00:47:15;2.60;;;2.40;;
5945;SDS011;2998;48.206;16.394;2023-04-04T00:54:03;3.50;;;3.20;;
5945;SDS011;2998;48.206;16.394;2023-04-04T00:56:32;2.93;;;2.60;;
5945;SDS011;2998;48.206;16.394;2023-04-04T00:59:03;2.50;;;2.30;;
5945;SDS011;2998;48.206;16.394;2023-04-04T01:01:35;3.73;;;2.73;;
5945;SDS011;2998;48.206;16.394;2023-04-04T01:04:04;4.30;;;2.13;;
5945;SDS011;2998;48.206;16.394;2023-04-04T01:06:33;2.60;;;2.40;;
5945;SDS011;2998;48.206;16.394;2023-04-04T01:09:03;3.10;;;2.43;;
5945;SDS011;2998;48.206;16.394;2023-04-04T01:11:35;3.87;;;2.50;;
5945;SDS011;2998;48.206;16.394;2023-04-04T01:14:05;4.20;;;2.77;;
5945;SDS011;2998;48.206;16.394;2023-04-04T01:20:49;2.33;;;2.23;;
5945;SDS011;2998;48.206;16.394;2023-04-04T01:23:20;2.87;;;2.30;;
5945;SDS011;2998;48.206;16.394;2023-04-04T01:30:14;2.83;;;2.50;;
5945;SDS011;2998;48.206;16.394;2023-04-04T01:32:44;6.27;;;2.60;;
5945;SDS011;2998;48.206;16.394;2023-04-04T01:39:47;3.13;;;2.83;;
5945;SDS011;2998;48.206;16.394;2023-04-04T01:42:17;2.80;;;2.47;;
5945;SDS011;2998;48.206;16.394;2023-04-04T01:44:51;3.23;;;2.60;;
5945;SDS011;2998;48.206;16.394;2023-04-04T01:47:24;3.13;;;2.90;;
5945;SDS011;2998;48.206;16.394;2023-04-04T01:49:53;3.07;;;2.77;;
5945;SDS011;2998;48.206;16.394;2023-04-04T01:56:41;2.57;;;2.37;;
5945;SDS011;2998;48.206;16.394;2023-04-04T01:59:11;4.00;;;2.60;;
5945;SDS011;2998;48.206;16.394;2023-04-04T02:06:08;3.57;;;2.40;;
5945;SDS011;2998;48.206;16.394;2023-04-04T02:08:37;2.87;;;2.67;;
5945;SDS011;2998;48.206;16.394;2023-04-04T02:15:31;2.90;;;2.57;;
5945;SDS011;2998;48.206;16.394;2023-04-04T02:22:16;2.57;;;2.37;;
5945;SDS011;2998;48.206;16.394;2023-04-04T02:24:46;5.77;;;2.33;;
5945;SDS011;2998;48.206;16.394;2023-04-04T02:31:21;2.53;;;2.43;;
5945;SDS011;2998;48.206;16.394;2023-04-04T02:33:50;6.77;;;2.70;;
5945;SDS011;2998;48.206;16.394;2023-04-04T02:36:19;2.83;;;2.47;;
5945;SDS011;2998;48.206;16.394;2023-04-04T02:38:50;3.63;;;2.80;;
5945;SDS011;2998;48.206;16.394;2023-04-04T02:41:19;2.83;;;2.63;;
5945;SDS011;2998;48.206;16.394;2023-04-04T02:43:51;4.73;;;2.90;;
5945;SDS011;2998;48.206;16.394;2023-04-04T02:46:21;7.97;;;2.40;;
5945;SDS011;2998;48.206;16.394;2023-04-04T02:48:50;6.00;;;3.17;;
5945;SDS011;2998;48.206;16.394;2023-04-04T02:51:19;3.00;;;2.80;;
5945;SDS011;2998;48.206;16.394;2023-04-04T02:53:50;3.70;;;2.73;;
5945;SDS011;2998;48.206;16.394;2023-04-04T02:56:19;3.20;;;3.00;;
5945;SDS011;2998;48.206;16.394;2023-04-04T03:03:01;3.63;;;2.90;;
5945;SDS011;2998;48.206;16.394;2023-04-04T03:05:31;3.30;;;3.10;;
5945;SDS011;2998;48.206;16.394;2023-04-04T03:12:20;4.30;;;3.10;;
5945;SDS011;2998;48.206;16.394;2023-04-04T03:14:50;3.13;;;2.93;;
5945;SDS011;2998;48.206;16.394;2023-04-04T03:17:19;4.73;;;2.80;;
5945;SDS011;2998;48.206;16.394;2023-04-04T03:19:49;2.60;;;2.40;;
5945;SDS011;2998;48.206;16.394;2023-04-04T03:22:18;5.17;;;3.40;;
5945;SDS011;2998;48.206;16.394;2023-04-04T03:24:47;2.60;;;2.40;;
5945;SDS011;2998;48.206;16.394;2023-04-04T03:27:17;4.43;;;3.60;;
5945;SDS011;2998;48.206;16.394;2023-04-04T03:29:47;3.40;;;3.10;;
5945;SDS011;2998;48.206;16.394;2023-04-04T03:32:18;3.03;;;2.80;;
5945;SDS011;2998;48.206;16.394;2023-04-04T03:43:49;3.40;;;2.90;;
5945;SDS011;2998;48.206;16.394;2023-04-04T03:46:20;3.03;;;2.83;;
5945;SDS011;2998;48.206;16.394;2023-04-04T03:53:01;2.20;;;2.10;;
5945;SDS011;2998;48.206;16.394;2023-04-04T03:55:30;3.53;;;2.83;;
5945;SDS011;2998;48.206;16.394;2023-04-04T03:58:01;2.67;;;2.47;;
5945;SDS011;2998;48.206;16.394;2023-04-04T04:00:31;2.30;;;1.87;;
5945;SDS011;2998;48.206;16.394;2023-04-04T04:03:01;3.03;;;2.83;;
5945;SDS011;2998;48.206;16.394;2023-04-04T04:09:50;2.60;;;2.40;;
5945;SDS011;2998;48.206;16.394;2023-04-04T04:12:19;2.87;;;2.20;;
5945;SDS011;2998;48.206;16.394;2023-04-04T04:19:09;1.90;;;1.80;;
5945;SDS011;2998;48.206;16.394;2023-04-04T04:21:39;1.80;;;1.70;;
5945;SDS011;2998;48.206;16.394;2023-04-04T04:28:33;2.00;;;1.67;;
5945;SDS011;2998;48.206;16.394;2023-04-04T04:35:16;1.60;;;1.50;;
5945;SDS011;2998;48.206;16.394;2023-04-04T04:37:46;2.40;;;1.90;;
5945;SDS011;2998;48.206;16.394;2023-04-04T04:44:20;3.63;;;1.40;;
5945;SDS011;2998;48.206;16.394;2023-04-04T04:46:50;1.53;;;1.43;;
5945;SDS011;2998;48.206;16.394;2023-04-04T04:49:20;1.50;;;1.40;;
5945;SDS011;2998;48.206;16.394;2023-04-04T04:56:17;2.60;;;1.60;;
5945;SDS011;2998;48.206;16.394;2023-04-04T04:58:46;1.60;;;1.50;;
5945;SDS011;2998;48.206;16.394;2023-04-04T05:05:35;3.00;;;2.43;;
5945;SDS011;2998;48.206;16.394;2023-04-04T05:08:04;2.03;;;1.77;;
5945;SDS011;2998;48.206;16.394;2023-04-04T05:14:54;1.83;;;1.73;;
5945;SDS011;2998;48.206;16.394;2023-04-04T05:17:23;2.27;;;2.03;;
5945;SDS011;2998;48.206;16.394;2023-04-04T05:19:52;1.67;;;1.57;;
5945;SDS011;2998;48.206;16.394;2023-04-04T05:22:21;2.07;;;1.73;;
5945;SDS011;2998;48.206;16.394;2023-04-04T05:24:51;2.20;;;1.57;;
5945;SDS011;2998;48.206;16.394;2023-04-04T05:31:36;1.83;;;1.63;;
5945;SDS011;2998;48.206;16.394;2023-04-04T05:34:05;2.33;;;1.57;;
5945;SDS011;2998;48.206;16.394;2023-04-04T05:45:31;1.67;;;1.57;;
5945;SDS011;2998;48.206;16.394;2023-04-04T05:48:02;1.87;;;1.77;;
5945;SDS011;2998;48.206;16.394;2023-04-04T05:50:31;2.20;;;2.00;;
5945;SDS011;2998;48.206;16.394;2023-04-04T05:53:00;3.20;;;2.50;;
5945;SDS011;2998;48.206;16.394;2023-04-04T05:55:30;1.97;;;1.87;;
5945;SDS011;2998;48.206;16.394;2023-04-04T06:02:24;6.53;;;2.10;;
5945;SDS011;2998;48.206;16.394;2023-04-04T06:04:55;2.37;;;2.17;;
5945;SDS011;2998;48.206;16.394;2023-04-04T06:11:48;3.67;;;2.60;;
5945;SDS011;2998;48.206;16.394;2023-04-04T06:14:18;6.20;;;2.33;;
5945;SDS011;2998;48.206;16.394;2023-04-04T06:21:00;2.30;;;1.90;;
5945;SDS011;2998;48.206;16.394;2023-04-04T06:23:30;2.03;;;1.93;;
5945;SDS011;2998;48.206;16.394;2023-04-04T06:25:59;2.17;;;1.97;;
5945;SDS011;2998;48.206;16.394;2023-04-04T06:28:28;1.90;;;1.80;;
5945;SDS011;2998;48.206;16.394;2023-04-04T06:30:57;1.70;;;1.60;;
5945;SDS011;2998;48.206;16.394;2023-04-04T06:37:41;9.00;;;5.03;;
5945;SDS011;2998;48.206;16.394;2023-04-04T06:40:11;5.77;;;3.33;;
5945;SDS011;2998;48.206;16.394;2023-04-04T06:46:58;6.53;;;5.83;;
5945;SDS011;2998;48.206;16.394;2023-04-04T06:49:27;9.87;;;7.30;;
5945;SDS011;2998;48.206;16.394;2023-04-04T06:51:57;10.17;;;8.23;;
5945;SDS011;2998;48.206;16.394;2023-04-04T06:54:34;14.10;;;9.73;;
5945;SDS011;2998;48.206;16.394;2023-04-04T06:57:04;3.63;;;2.60;;
5945;SDS011;2998;48.206;16.394;2023-04-04T07:00:28;3.93;;;3.63;;
5945;SDS011;2998;48.206;16.394;2023-04-04T07:07:16;2.57;;;2.37;;
5945;SDS011;2998;48.206;16.394;2023-04-04T07:09:46;22.83;;;9.30;;
5945;SDS011;2998;48.206;16.394;2023-04-04T07:16:18;4.30;;;3.90;;
5945;SDS011;2998;48.206;16.394;2023-04-04T07:23:06;4.43;;;3.10;;
5945;SDS011;2998;48.206;16.394;2023-04-04T07:25:36;3.37;;;3.10;;
5945;SDS011;2998;48.206;16.394;2023-04-04T07:32:25;2.60;;;2.40;;
5945;SDS011;2998;48.206;16.394;2023-04-04T07:34:55;1.70;;;1.60;;
5945;SDS011;2998;48.206;16.394;2023-04-04T07:37:25;2.20;;;2.10;;
5945;SDS011;2998;48.206;16.394;2023-04-04T07:39:55;4.17;;;3.97;;
5945;SDS011;2998;48.206;16.394;2023-04-04T07:42:26;2.03;;;1.73;;
5945;SDS011;2998;48.206;16.394;2023-04-04T07:44:57;6.30;;;2.20;;
5945;SDS011;2998;48.206;16.394;2023-04-04T07:47:26;2.17;;;1.80;;
5945;SDS011;2998;48.206;16.394;2023-04-04T07:49:56;2.20;;;1.70;;
5945;SDS011;2998;48.206;16.394;2023-04-04T07:52:25;2.07;;;1.80;;
5945;SDS011;2998;48.206;16.394;2023-04-04T07:54:54;1.57;;;1.47;;
5945;SDS011;2998;48.206;16.394;2023-04-04T07:57:23;1.70;;;1.53;;
5945;SDS011;2998;48.206;16.394;2023-04-04T07:59:54;2.50;;;1.60;;
5945;SDS011;2998;48.206;16.394;2023-04-04T08:02:24;9.33;;;1.87;;
5945;SDS011;2998;48.206;16.394;2023-04-04T08:04:53;2.00;;;1.80;;
5945;SDS011;2998;48.206;16.394;2023-04-04T08:07:22;6.20;;;2.23;;
5945;SDS011;2998;48.206;16.394;2023-04-04T08:09:53;2.10;;;1.67;;
5945;SDS011;2998;48.206;16.394;2023-04-04T08:12:23;2.17;;;1.50;;
5945;SDS011;2998;48.206;16.394;2023-04-04T08:19:06;1.87;;;1.77;;
5945;SDS011;2998;48.206;16.394;2023-04-04T08:21:36;2.60;;;2.00;;
5945;SDS011;2998;48.206;16.394;2023-04-04T08:28:11;4.13;;;3.23;;
5945;SDS011;2998;48.206;16.394;2023-04-04T08:30:41;1.60;;;1.50;;
5945;SDS011;2998;48.206;16.394;2023-04-04T08:37:31;2.43;;;1.67;;
5945;SDS011;2998;48.206;16.394;2023-04-04T08:40:01;3.80;;;1.40;;
5945;SDS011;2998;48.206;16.394;2023-04-04T08:42:32;1.87;;;1.77;;
5945;SDS011;2998;48.206;16.394;2023-04-04T08:45:03;1.67;;;1.57;;
5945;SDS011;2998;48.206;16.394;2023-04-04T08:47:33;1.80;;;1.70;;
5945;SDS011;2998;48.206;16.394;2023-04-04T08:50:03;3.83;;;2.40;;
5945;SDS011;2998;48.206;16.394;2023-04-04T08:52:34;2.83;;;2.40;;
5945;SDS011;2998;48.206;16.394;2023-04-04T08:59:16;5.90;;;3.57;;
5945;SDS011;2998;48.206;16.394;2023-04-04T09:01:46;5.13;;;1.77;;
5945;SDS011;2998;48.206;16.394;2023-04-04T09:08:37;1.50;;;1.40;;
5945;SDS011;2998;48.206;16.394;2023-04-04T09:11:07;6.60;;;1.67;;
5945;SDS011;2998;48.206;16.394;2023-04-04T09:17:55;1.60;;;1.50;;
5945;SDS011;2998;48.206;16.394;2023-04-04T09:24:38;2.43;;;2.23;;
5945;SDS011;2998;48.206;16.394;2023-04-04T09:27:08;1.93;;;1.83;;
5945;SDS011;2998;48.206;16.394;2023-04-04T09:33:58;2.00;;;1.90;;
5945;SDS011;2998;48.206;16.394;2023-04-04T09:36:28;2.00;;;1.90;;
5945;SDS011;2998;48.206;16.394;2023-04-04T09:38:57;3.13;;;2.37;;
5945;SDS011;2998;48.206;16.394;2023-04-04T09:41:29;2.60;;;2.40;;
5945;SDS011;2998;48.206;16.394;2023-04-04T09:48:10;2.23;;;2.03;;
5945;SDS011;2998;48.206;16.394;2023-04-04T09:55:05;4.50;;;3.90;;
5945;SDS011;2998;48.206;16.394;2023-04-04T09:57:36;2.47;;;2.27;;
5945;SDS011;2998;48.206;16.394;2023-04-04T10:04:31;1.90;;;1.70;;
5945;SDS011;2998;48.206;16.394;2023-04-04T10:07:03;1.93;;;1.60;;
5945;SDS011;2998;48.206;16.394;2023-04-04T10:13:54;2.90;;;2.17;;
5945;SDS011;2998;48.206;16.394;2023-04-04T10:16:25;2.03;;;1.70;;
5945;SDS011;2998;48.206;16.394;2023-04-04T10:18:54;4.50;;;2.20;;
5945;SDS011;2998;48.206;16.394;2023-04-04T10:21:23;2.70;;;2.50;;
5945;SDS011;2998;48.206;16.394;2023-04-04T10:23:53;2.17;;;1.97;;
5945;SDS011;2998;48.206;16.394;2023-04-04T10:26:23;3.80;;;2.27;;
5945;SDS011;2998;48.206;16.394;2023-04-04T10:28:54;3.30;;;2.47;;
5945;SDS011;2998;48.206;16.394;2023-04-04T10:31:24;1.87;;;1.70;;
5945;SDS011;2998;48.206;16.394;2023-04-04T10:33:58;2.20;;;2.10;;
5945;SDS011;2998;48.206;16.394;2023-04-04T10:36:35;2.20;;;2.10;;
5945;SDS011;2998;48.206;16.394;2023-04-04T10:39:10;3.33;;;2.47;;
5945;SDS011;2998;48.206;16.394;2023-04-04T10:45:48;2.30;;;2.20;;
5945;SDS011;2998;48.206;16.394;2023-04-04T10:48:18;3.67;;;2.40;;
5945;SDS011;2998;48.206;16.394;2023-04-04T10:55:13;2.33;;;2.13;;
5945;SDS011;2998;48.206;16.394;2023-04-04T10:57:44;4.30;;;2.10;;
5945;SDS011;2998;48.206;16.394;2023-04-04T11:04:38;2.40;;;2.20;;
5945;SDS011;2998;48.206;16.394;2023-04-04T11:07:10;4.00;;;2.10;;
5945;SDS011;2998;48.206;16.394;2023-04-04T11:13:57;3.83;;;3.13;;
5945;SDS011;2998;48.206;16.394;2023-04-04T11:20:41;3.03;;;2.30;;
5945;SDS011;2998;48.206;16.394;2023-04-04T11:23:16;1.90;;;1.80;;
5945;SDS011;2998;48.206;16.394;2023-04-04T11:30:08;1.97;;;1.87;;
5945;SDS011;2998;48.206;16.394;2023-04-04T11:34:29;2.27;;;2.17;;
5945;SDS011;2998;48.206;16.394;2023-04-04T11:45:44;3.00;;;2.60;;
5945;SDS011;2998;48.206;16.394;2023-04-04T11:48:14;3.83;;;2.20;;
5945;SDS011;2998;48.206;16.394;2023-04-04T11:55:12;3.47;;;1.97;;
5945;SDS011;2998;48.206;16.394;2023-04-04T11:57:46;3.73;;;2.33;;
5945;SDS011;2998;48.206;16.394;2023-04-04T12:00:31;3.17;;;2.30;;
5945;SDS011;2998;48.206;16.394;2023-04-04T12:03:04;2.10;;;2.00;;
5945;SDS011;2998;48.206;16.394;2023-04-04T12:09:55;4.17;;;2.20;;
5945;SDS011;2998;48.206;16.394;2023-04-04T12:16:36;9.13;;;2.33;;
5945;SDS011;2998;48.206;16.394;2023-04-04T12:19:07;1.73;;;1.63;;
5945;SDS011;2998;48.206;16.394;2023-04-04T12:25:43;2.20;;;2.10;;
5945;SDS011;2998;48.206;16.394;2023-04-04T12:32:51;1.87;;;1.77;;
5945;SDS011;2998;48.206;16.394;2023-04-04T12:35:22;1.97;;;1.87;;
5945;SDS011;2998;48.206;16.394;2023-04-04T12:46:35;2.53;;;2.33;;
5945;SDS011;2998;48.206;16.394;2023-04-04T12:49:06;3.30;;;2.03;;
5945;SDS011;2998;48.206;16.394;2023-04-04T12:56:05;2.50;;;2.40;;
5945;SDS011;2998;48.206;16.394;2023-04-04T12:58:37;6.00;;;5.20;;
5945;SDS011;2998;48.206;16.394;2023-04-04T13:01:06;7.80;;;5.30;;
5945;SDS011;2998;48.206;16.394;2023-04-04T13:04:44;2.40;;;1.93;;
5945;SDS011;2998;48.206;16.394;2023-04-04T13:26:00;2.93;;;2.73;;
5945;SDS011;2998;48.206;16.394;2023-04-04T13:28:32;2.27;;;2.07;;
5945;SDS011;2998;48.206;16.394;2023-04-04T13:31:02;5.57;;;2.13;;
5945;SDS011;2998;48.206;16.394;2023-04-04T13:33:33;2.47;;;2.27;;
5945;SDS011;2998;48.206;16.394;2023-04-04T13:36:03;6.60;;;2.47;;
5945;SDS011;2998;48.206;16.394;2023-04-04T13:38:33;4.13;;;2.20;;
5945;SDS011;2998;48.206;16.394;2023-04-04T13:41:03;4.30;;;2.40;;
5945;SDS011;2998;48.206;16.394;2023-04-04T13:43:34;2.43;;;2.20;;
5945;SDS011;2998;48.206;16.394;2023-04-04T13:46:03;2.90;;;2.70;;
5945;SDS011;2998;48.206;16.394;2023-04-04T13:48:33;2.50;;;2.30;;
5945;SDS011;2998;48.206;16.394;2023-04-04T13:51:05;2.00;;;1.90;;
5945;SDS011;2998;48.206;16.394;2023-04-04T13:57:40;5.30;;;2.10;;
5945;SDS011;2998;48.206;16.394;2023-04-04T14:00:12;2.00;;;1.90;;
5945;SDS011;2998;48.206;16.394;2023-04-04T14:07:06;2.63;;;2.43;;
5945;SDS011;2998;48.206;16.394;2023-04-04T14:09:36;3.17;;;2.50;;
5945;SDS011;2998;48.206;16.394;2023-04-04T14:16:29;1.87;;;1.77;;
5945;SDS011;2998;48.206;16.394;2023-04-04T14:18:58;2.77;;;2.57;;
5945;SDS011;2998;48.206;16.394;2023-04-04T14:21:27;2.23;;;2.13;;
5945;SDS011;2998;48.206;16.394;2023-04-04T14:23:57;2.60;;;2.27;;
5945;SDS011;2998;48.206;16.394;2023-04-04T14:28:55;3.30;;;2.53;;
5945;SDS011;2998;48.206;16.394;2023-04-04T14:31:25;5.07;;;2.67;;
5945;SDS011;2998;48.206;16.394;2023-04-04T14:33:56;2.33;;;2.13;;
5945;SDS011;2998;48.206;16.394;2023-04-04T14:36:25;2.77;;;2.40;;
5945;SDS011;2998;48.206;16.394;2023-04-04T14:38:54;2.43;;;2.20;;
5945;SDS011;2998;48.206;16.394;2023-04-04T14:41:24;3.43;;;2.27;;
5945;SDS011;2998;48.206;16.394;2023-04-04T14:43:54;6.70;;;3.07;;
5945;SDS011;2998;48.206;16.394;2023-04-04T14:46:25;2.20;;;2.00;;
5945;SDS011;2998;48.206;16.394;2023-04-04T14:53:02;2.93;;;2.33;;
5945;SDS011;2998;48.206;16.394;2023-04-04T14:55:31;2.67;;;2.50;;
5945;SDS011;2998;48.206;16.394;2023-04-04T15:02:19;3.33;;;2.40;;
5945;SDS011;2998;48.206;16.394;2023-04-04T15:04:49;6.63;;;2.83;;
5945;SDS011;2998;48.206;16.394;2023-04-04T15:07:18;2.90;;;2.60;;
5945;SDS011;2998;48.206;16.394;2023-04-04T15:09:51;4.23;;;2.50;;
5945;SDS011;2998;48.206;16.394;2023-04-04T15:12:20;3.57;;;3.23;;
5945;SDS011;2998;48.206;16.394;2023-04-04T15:14:49;2.30;;;2.10;;
5945;SDS011;2998;48.206;16.394;2023-04-04T15:17:19;2.20;;;2.10;;
5945;SDS011;2998;48.206;16.394;2023-04-04T15:19:48;4.20;;;2.60;;
5945;SDS011;2998;48.206;16.394;2023-04-04T15:22:17;2.23;;;2.13;;
5945;SDS011;2998;48.206;16.394;2023-04-04T15:24:47;2.50;;;2.30;;
5945;SDS011;2998;48.206;16.394;2023-04-04T15:27:17;9.17;;;3.27;;
5945;SDS011;2998;48.206;16.394;2023-04-04T15:29:46;2.40;;;2.20;;
5945;SDS011;2998;48.206;16.394;2023-04-04T15:32:16;4.37;;;2.33;;
5945;SDS011;2998;48.206;16.394;2023-04-04T15:34:45;6.50;;;2.10;;
5945;SDS011;2998;48.206;16.394;2023-04-04T15:37:14;2.30;;;2.20;;
5945;SDS011;2998;48.206;16.394;2023-04-04T15:39:43;2.83;;;2.63;;
5945;SDS011;2998;48.206;16.394;2023-04-04T15:42:21;2.23;;;2.13;;
5945;SDS011;2998;48.206;16.394;2023-04-04T15:44:50;4.63;;;4.20;;
5945;SDS011;2998;48.206;16.394;2023-04-04T15:47:20;3.57;;;2.77;;
5945;SDS011;2998;48.206;16.394;2023-04-04T15:54:08;2.60;;;2.40;;
5945;SDS011;2998;48.206;16.394;2023-04-04T15:56:38;1.80;;;1.70;;
5945;SDS011;2998;48.206;16.394;2023-04-04T16:03:21;5.67;;;1.70;;
5945;SDS011;2998;48.206;16.394;2023-04-04T16:05:51;2.00;;;1.90;;
5945;SDS011;2998;48.206;16.394;2023-04-04T16:12:39;4.93;;;2.83;;
5945;SDS011;2998;48.206;16.394;2023-04-04T16:19:22;4.20;;;2.70;;
5945;SDS011;2998;48.206;16.394;2023-04-04T16:21:51;2.23;;;2.10;;
5945;SDS011;2998;48.206;16.394;2023-04-04T16:28:39;2.90;;;2.10;;
5945;SDS011;2998;48.206;16.394;2023-04-04T16:31:12;2.00;;;1.90;;
5945;SDS011;2998;48.206;16.394;2023-04-04T16:38:11;2.80;;;2.10;;
5945;SDS011;2998;48.206;16.394;2023-04-04T16:40:40;2.33;;;2.23;;
5945;SDS011;2998;48.206;16.394;2023-04-04T16:43:10;3.60;;;2.90;;
5945;SDS011;2998;48.206;16.394;2023-04-04T16:45:39;3.40;;;2.77;;
5945;SDS011;2998;48.206;16.394;2023-04-04T16:48:08;5.40;;;2.60;;
5945;SDS011;2998;48.206;16.394;2023-04-04T16:50:38;7.00;;;2.60;;
5945;SDS011;2998;48.206;16.394;2023-04-04T16:53:08;2.10;;;2.00;;
5945;SDS011;2998;48.206;16.394;2023-04-04T16:55:42;3.67;;;2.20;;
5945;SDS011;2998;48.206;16.394;2023-04-04T16:58:11;3.33;;;3.07;;
5945;SDS011;2998;48.206;16.394;2023-04-04T17:00:40;2.70;;;2.50;;
5945;SDS011;2998;48.206;16.394;2023-04-04T17:03:10;2.53;;;2.43;;
5945;SDS011;2998;48.206;16.394;2023-04-04T17:05:39;3.00;;;2.80;;
5945;SDS011;2998;48.206;16.394;2023-04-04T17:08:09;3.50;;;2.80;;
5945;SDS011;2998;48.206;16.394;2023-04-04T17:14:59;3.10;;;2.70;;
5945;SDS011;2998;48.206;16.394;2023-04-04T17:17:29;2.60;;;2.40;;
5945;SDS011;2998;48.206;16.394;2023-04-04T17:24:10;4.07;;;2.83;;
5945;SDS011;2998;48.206;16.394;2023-04-04T17:26:40;2.27;;;2.17;;
5945;SDS011;2998;48.206;16.394;2023-04-04T17:33:26;2.20;;;2.10;;
5945;SDS011;2998;48.206;16.394;2023-04-04T17:40:14;9.90;;;6.30;;
5945;SDS011;2998;48.206;16.394;2023-04-04T17:42:44;7.33;;;4.97;;
5945;SDS011;2998;48.206;16.394;2023-04-04T17:49:27;6.30;;;4.00;;
5945;SDS011;2998;48.206;16.394;2023-04-04T17:51:56;3.57;;;3.27;;
5945;SDS011;2998;48.206;16.394;2023-04-04T17:58:44;3.00;;;2.70;;
5945;SDS011;2998;48.206;16.394;2023-04-04T18:01:14;3.80;;;3.50;;
5945;SDS011;2998;48.206;16.394;2023-04-04T18:03:43;3.27;;;3.07;;
5945;SDS011;2998;48.206;16.394;2023-04-04T18:06:15;4.17;;;3.80;;
5945;SDS011;2998;48.206;16.394;2023-04-04T18:08:44;2.53;;;2.43;;
5945;SDS011;2998;48.206;16.394;2023-04-04T18:15:25;3.07;;;2.70;;
5945;SDS011;2998;48.206;16.394;2023-04-04T18:17:55;2.60;;;2.40;;
5945;SDS011;2998;48.206;16.394;2023-04-04T18:24:44;2.70;;;2.50;;
5945;SDS011;2998;48.206;16.394;2023-04-04T18:27:14;4.57;;;2.57;;
5945;SDS011;2998;48.206;16.394;2023-04-04T18:29:43;2.47;;;2.37;;
5945;SDS011;2998;48.206;16.394;2023-04-04T18:32:45;3.90;;;3.07;;
5945;SDS011;2998;48.206;16.394;2023-04-04T18:39:34;2.50;;;2.33;;
5945;SDS011;2998;48.206;16.394;2023-04-04T18:42:05;7.37;;;5.40;;
5945;SDS011;2998;48.206;16.394;2023-04-04T18:44:34;21.50;;;13.27;;
5945;SDS011;2998;48.206;16.394;2023-04-04T18:47:05;4.70;;;4.13;;
5945;SDS011;2998;48.206;16.394;2023-04-04T18:49:35;4.10;;;3.70;;
5945;SDS011;2998;48.206;16.394;2023-04-04T18:52:04;3.10;;;2.90;;
5945;SDS011;2998;48.206;16.394;2023-04-04T18:54:33;3.57;;;3.27;;
5945;SDS011;2998;48.206;16.394;2023-04-04T18:57:02;4.50;;;4.10;;
5945;SDS011;2998;48.206;16.394;2023-04-04T18:59:34;7.67;;;3.97;;
5945;SDS011;2998;48.206;16.394;2023-04-04T19:02:03;6.93;;;4.07;;
5945;SDS011;2998;48.206;16.394;2023-04-04T19:04:33;5.17;;;4.37;;
5945;SDS011;2998;48.206;16.394;2023-04-04T19:07:03;6.67;;;4.80;;
5945;SDS011;2998;48.206;16.394;2023-04-04T19:09:34;7.00;;;5.03;;
5945;SDS011;2998;48.206;16.394;2023-04-04T19:12:04;9.13;;;5.70;;
5945;SDS011;2998;48.206;16.394;2023-04-04T19:14:34;3.93;;;3.33;;
5945;SDS011;2998;48.206;16.394;2023-04-04T19:17:03;29.20;;;17.17;;
5945;SDS011;2998;48.206;16.394;2023-04-04T19:19:33;7.40;;;5.30;;
5945;SDS011;2998;48.206;16.394;2023-04-04T19:26:09;9.43;;;7.10;;
5945;SDS011;2998;48.206;16.394;2023-04-04T19:28:38;23.17;;;13.70;;
5945;SDS011;2998;48.206;16.394;2023-04-04T19:35:44;17.83;;;12.30;;
5945;SDS011;2998;48.206;16.394;2023-04-04T19:38:17;11.80;;;7.80;;
5945;SDS011;2998;48.206;16.394;2023-04-04T19:40:50;13.57;;;9.50;;
5945;SDS011;2998;48.206;16.394;2023-04-04T19:43:20;12.30;;;7.57;;
5945;SDS011;2998;48.206;16.394;2023-04-04T19:50:08;13.40;;;6.77;;
5945;SDS011;2998;48.206;16.394;2023-04-04T19:53:04;8.43;;;6.50;;
5945;SDS011;2998;48.206;16.394;2023-04-04T19:55:36;8.83;;;6.53;;
5945;SDS011;2998;48.206;16.394;2023-04-04T19:59:54;9.10;;;5.70;;
5945;SDS011;2998;48.206;16.394;2023-04-04T20:06:45;9.97;;;6.83;;
5945;SDS011;2998;48.206;16.394;2023-04-04T20:09:24;15.97;;;9.93;;
5945;SDS011;2998;48.206;16.394;2023-04-04T20:16:18;6.20;;;5.53;;
5945;SDS011;2998;48.206;16.394;2023-04-04T20:18:48;4.80;;;4.40;;
5945;SDS011;2998;48.206;16.394;2023-04-04T20:25:39;10.20;;;6.23;;
5945;SDS011;2998;48.206;16.394;2023-04-04T20:28:17;12.13;;;6.27;;
5945;SDS011;2998;48.206;16.394;2023-04-04T20:30:47;11.17;;;7.97;;
5945;SDS011;2998;48.206;16.394;2023-04-04T20:33:28;11.00;;;7.57;;
5945;SDS011;2998;48.206;16.394;2023-04-04T20:36:11;8.10;;;6.40;;
5945;SDS011;2998;48.206;16.394;2023-04-04T20:38:58;7.27;;;6.23;;
5945;SDS011;2998;48.206;16.394;2023-04-04T20:45:47;40.57;;;16.60;;
5945;SDS011;2998;48.206;16.394;2023-04-04T20:48:32;52.67;;;25.13;;
5945;SDS011;2998;48.206;16.394;2023-04-04T20:51:06;20.63;;;10.40;;
5945;SDS011;2998;48.206;16.394;2023-04-04T20:53:49;22.70;;;12.73;;
5945;SDS011;2998;48.206;16.394;2023-04-04T21:00:44;17.30;;;9.33;;
5945;SDS011;2998;48.206;16.394;2023-04-04T21:03:22;30.07;;;14.80;;
5945;SDS011;2998;48.206;16.394;2023-04-04T21:05:58;24.17;;;13.70;;
5945;SDS011;2998;48.206;16.394;2023-04-04T21:08:36;34.97;;;15.20;;
5945;SDS011;2998;48.206;16.394;2023-04-04T21:11:09;6.70;;;6.07;;
5945;SDS011;2998;48.206;16.394;2023-04-04T21:13:39;6.40;;;4.97;;
5945;SDS011;2998;48.206;16.394;2023-04-04T21:16:11;8.60;;;4.83;;
5945;SDS011;2998;48.206;16.394;2023-04-04T21:18:44;5.10;;;4.70;;
5945;SDS011;2998;48.206;16.394;2023-04-04T21:21:14;12.83;;;4.97;;
5945;SDS011;2998;48.206;16.394;2023-04-04T21:23:48;8.93;;;4.70;;
5945;SDS011;2998;48.206;16.394;2023-04-04T21:26:29;5.03;;;4.33;;
5945;SDS011;2998;48.206;16.394;2023-04-04T21:29:01;4.27;;;3.90;;
5945;SDS011;2998;48.206;16.394;2023-04-04T21:31:36;15.53;;;7.00;;
5945;SDS011;2998;48.206;16.394;2023-04-04T21:34:08;7.50;;;5.20;;
5945;SDS011;2998;48.206;16.394;2023-04-04T21:36:38;6.37;;;5.77;;
5945;SDS011;2998;48.206;16.394;2023-04-04T21:39:11;9.03;;;5.27;;
5945;SDS011;2998;48.206;16.394;2023-04-04T21:41:42;73.17;;;38.50;;
5945;SDS011;2998;48.206;16.394;2023-04-04T21:44:12;30.50;;;18.10;;
5945;SDS011;2998;48.206;16.394;2023-04-04T21:46:43;28.00;;;17.10;;
5945;SDS011;2998;48.206;16.394;2023-04-04T21:49:14;42.93;;;24.13;;
5945;SDS011;2998;48.206;16.394;2023-04-04T21:51:43;90.10;;;41.00;;
5945;SDS011;2998;48.206;16.394;2023-04-04T21:54:12;154.73;;;60.60;;
5945;SDS011;2998;48.206;16.394;2023-04-04T21:56:42;87.30;;;35.83;;
5945;SDS011;2998;48.206;16.394;2023-04-04T21:59:11;25.50;;;14.67;;
5945;SDS011;2998;48.206;16.394;2023-04-04T22:01:43;52.37;;;26.17;;
5945;SDS011;2998;48.206;16.394;2023-04-04T22:04:13;11.27;;;8.33;;
5945;SDS011;2998;48.206;16.394;2023-04-04T22:06:42;13.20;;;7.77;;
5945;SDS011;2998;48.206;16.394;2023-04-04T22:09:11;8.33;;;6.90;;
5945;SDS011;2998;48.206;16.394;2023-04-04T22:11:41;14.23;;;8.83;;
5945;SDS011;2998;48.206;16.394;2023-04-04T22:14:11;21.03;;;10.03;;
5945;SDS011;2998;48.206;16.394;2023-04-04T22:16:50;12.47;;;7.40;;
5945;SDS011;2998;48.206;16.394;2023-04-04T22:19:19;11.00;;;6.93;;
5945;SDS011;2998;48.206;16.394;2023-04-04T22:21:49;11.00;;;7.87;;
5945;SDS011;2998;48.206;16.394;2023-04-04T22:24:20;10.53;;;8.43;;
5945;SDS011;2998;48.206;16.394;2023-04-04T22:26:49;23.60;;;11.87;;
5945;SDS011;2998;48.206;16.394;2023-04-04T22:29:18;19.17;;;10.73;;